Time;durP1;ratioP1;P1;durP2;ratioP2;P2;SDS_P1;SDS_P2;PMS_P1;PMS_P2;Temp;Humidity;BMP_temperature;BMP_pressure;BME280_temperature;BME280_humidity;BME280_pressure;Samples;Min_cycle;Max_cycle;Signal;HPM_P1;HPM_P2
2022/06/18 00:01:35;;;;;;;1.58;1.17;;;;;;;14.22;96.90;98900.38;5066811;28;20021;-72
2022/06/18 00:04:11;;;;;;;1.73;1.20;;;;;;;14.32;97.44;98909.81;5066776;28;20193;-72
2022/06/18 00:07:00;;;;;;;5.25;1.20;;;;;;;14.30;97.26;98906.38;5066727;28;20307;-72
2022/06/18 00:10:04;;;;;;;2.22;1.35;;;;;;;14.31;97.16;98913.38;5066642;28;20092;-72
2022/06/18 00:15:20;;;;;;;1.13;1.00;;;;;;;14.19;96.00;98897.81;5066502;28;20075;-72
2022/06/18 00:17:46;;;;;;;1.25;1.00;;;;;;;14.14;95.70;98892.66;5066492;28;20052;-72
2022/06/18 00:20:13;;;;;;;2.53;1.45;;;;;;;14.17;96.34;98899.63;5066335;28;20052;-72
2022/06/18 00:22:41;;;;;;;3.78;1.25;;;;;;;14.08;96.61;98899.94;5066452;28;20256;-72
2022/06/18 00:25:17;;;;;;;1.75;1.23;;;;;;;13.92;96.02;98909.22;5049845;28;20025;-72
2022/06/18 00:27:43;;;;;;;4.38;1.45;;;;;;;14.00;96.92;98904.56;5046253;28;20033;-72
2022/06/18 00:30:11;;;;;;;1.95;1.02;;;;;;;13.90;97.26;98900.44;5046233;28;20025;-72
2022/06/18 00:32:36;;;;;;;2.50;1.25;;;;;;;13.96;97.43;98906.44;5045094;28;20040;-72
2022/06/18 00:35:02;;;;;;;2.30;1.52;;;;;;;13.99;97.77;98905.47;5046144;28;20026;-72
2022/06/18 00:37:27;;;;;;;2.38;1.38;;;;;;;13.95;98.18;98898.56;5046131;28;20089;-72
2022/06/18 00:39:53;;;;;;;2.03;1.40;;;;;;;13.97;98.24;98902.88;5050777;28;20029;-72
2022/06/18 00:42:25;;;;;;;2.28;1.30;;;;;;;13.97;97.97;98902.00;5066033;28;20020;-72
2022/06/18 00:44:54;;;;;;;3.10;1.30;;;;;;;13.92;97.74;98898.63;5065973;28;20063;-72
2022/06/18 00:47:47;;;;;;;8.73;1.38;;;;;;;13.98;97.45;98901.13;5065945;28;20032;-72
2022/06/18 00:50:29;;;;;;;5.72;1.73;;;;;;;13.97;97.52;98896.72;5065952;28;20027;-72
2022/06/18 00:53:01;;;;;;;2.08;1.52;;;;;;;13.91;97.59;98897.75;5065644;28;20052;-72
2022/06/18 00:55:42;;;;;;;1.85;1.48;;;;;;;13.88;97.86;98896.97;5065391;28;20029;-72
2022/06/18 00:58:23;;;;;;;2.10;1.50;;;;;;;13.78;98.62;98895.50;5051870;28;20029;-72
2022/06/18 01:00:50;;;;;;;2.45;1.30;;;;;;;13.71;98.21;98893.94;5044572;28;20250;-72
2022/06/18 01:03:29;;;;;;;1.58;1.20;;;;;;;13.73;98.47;98902.72;5045675;28;20029;-72
2022/06/18 01:05:57;;;;;;;2.72;1.50;;;;;;;13.77;98.24;98896.41;5045697;28;20017;-72
2022/06/18 01:08:26;;;;;;;2.15;1.50;;;;;;;13.73;98.45;98894.78;5045637;28;20028;-72
2022/06/18 01:10:57;;;;;;;1.90;1.25;;;;;;;13.75;98.02;98895.56;5045550;28;20028;-72
2022/06/18 01:13:28;;;;;;;2.00;1.55;;;;;;;13.67;97.77;98887.00;5045691;28;20029;-72
2022/06/18 01:15:55;;;;;;;1.58;1.23;;;;;;;13.54;97.77;98882.97;5045407;28;20036;-72
2022/06/18 01:18:22;;;;;;;2.72;1.30;;;;;;;13.49;98.47;98876.91;5045248;28;20113;-72
2022/06/18 01:21:22;;;;;;;2.78;1.73;;;;;;;13.57;98.57;98885.53;5045350;28;20032;-72
2022/06/18 01:24:03;;;;;;;2.53;1.50;;;;;;;13.52;98.59;98882.13;5052418;28;20103;-72
2022/06/18 01:26:28;;;;;;;1.55;1.30;;;;;;;13.46;99.07;98867.28;5065173;28;20372;-72
2022/06/18 01:28:54;;;;;;;3.42;1.30;;;;;;;13.48;98.97;98864.63;5065100;28;20027;-72
2022/06/18 01:31:19;;;;;;;2.20;1.63;;;;;;;13.45;99.58;98875.28;5047844;28;20032;-72
2022/06/18 01:33:46;;;;;;;3.28;1.70;;;;;;;13.12;98.03;98860.28;5044997;28;20237;-72
2022/06/18 01:36:13;;;;;;;1.42;1.17;;;;;;;13.24;99.07;98871.41;5045135;28;20021;-72
2022/06/18 01:38:44;;;;;;;4.35;1.67;;;;;;;13.37;99.66;98864.00;5044998;28;20063;-72
2022/06/18 01:44:04;;;;;;;4.50;1.30;;;;;;;13.38;100.00;98868.41;5044924;28;20028;-72
2022/06/18 01:46:31;;;;;;;1.40;1.17;;;;;;;13.16;98.77;98861.97;5045037;28;20375;-72
2022/06/18 01:48:58;;;;;;;2.03;1.52;;;;;;;13.16;99.87;98856.66;5044864;28;20116;-72
2022/06/18 01:51:31;;;;;;;2.63;1.50;;;;;;;13.21;99.96;98865.34;5044777;28;20198;-72
2022/06/18 01:54:01;;;;;;;2.40;1.40;;;;;;;13.23;100.00;98858.25;5044660;28;20135;-72
2022/06/18 01:56:32;;;;;;;2.85;1.40;;;;;;;13.25;100.00;98856.44;5044692;28;20036;-72
2022/06/18 01:59:08;;;;;;;1.63;1.27;;;;;;;13.24;99.74;98854.69;5044650;28;20022;-72
2022/06/18 02:01:38;;;;;;;1.92;1.35;;;;;;;13.12;99.79;98855.00;5044562;28;20150;-72
2022/06/18 02:04:04;;;;;;;1.70;1.20;;;;;;;13.12;99.55;98855.00;5052284;28;20027;-72
2022/06/18 02:06:33;;;;;;;3.53;1.80;;;;;;;13.20;99.89;98853.03;5054673;28;20021;-72
2022/06/18 02:09:06;;;;;;;5.20;1.77;;;;;;;13.21;99.78;98849.47;5044367;28;20317;-72
2022/06/18 02:11:31;;;;;;;2.45;1.40;;;;;;;13.24;99.68;98859.97;5044432;28;20032;-72
2022/06/18 02:14:07;;;;;;;1.60;1.50;;;;;;;13.20;99.06;98853.03;5044335;28;20025;-72
2022/06/18 02:16:39;;;;;;;1.80;1.40;;;;;;;13.17;99.13;98853.13;5044335;28;20392;-72
2022/06/18 02:19:06;;;;;;;2.38;1.20;;;;;;;13.16;99.55;98856.66;5044183;28;20065;-72
2022/06/18 02:21:39;;;;;;;3.00;1.55;;;;;;;13.20;99.82;98853.03;5062753;28;20320;-72
2022/06/18 02:24:05;;;;;;;1.95;1.63;;;;;;;13.18;99.91;98849.56;5064181;28;20313;-72
2022/06/18 02:26:31;;;;;;;2.50;1.92;;;;;;;12.99;99.10;98844.75;5064108;28;20032;-72
2022/06/18 02:28:58;;;;;;;1.75;1.30;;;;;;;12.88;99.37;98844.13;5064017;28;20024;-72
2022/06/18 02:31:30;;;;;;;3.92;1.20;;;;;;;12.93;99.84;98839.59;5064070;28;20036;-72
2022/06/18 02:34:03;;;;;;;1.42;1.20;;;;;;;12.96;100.00;98839.53;5063836;28;20029;-72
2022/06/18 02:36:31;;;;;;;3.72;1.63;;;;;;;12.99;99.88;98839.47;5064016;28;20025;-72
2022/06/18 02:39:00;;;;;;;1.55;1.30;;;;;;;12.96;100.00;98828.97;5063960;28;20029;-72
2022/06/18 02:41:26;;;;;;;2.00;1.42;;;;;;;12.88;100.00;98833.56;5063975;28;20020;-72
2022/06/18 02:43:53;;;;;;;2.63;1.52;;;;;;;12.98;100.00;98832.41;5063595;28;20025;-72
2022/06/18 02:46:19;;;;;;;1.73;1.40;;;;;;;12.96;99.99;98839.53;5043926;28;20100;-72
2022/06/18 02:48:45;;;;;;;2.33;1.48;;;;;;;12.87;99.82;98839.75;5043976;28;20021;-72
2022/06/18 02:51:12;;;;;;;4.13;1.25;;;;;;;12.75;99.68;98833.88;5043992;28;20025;-72
2022/06/18 02:53:38;;;;;;;1.85;1.27;;;;;;;12.84;100.00;98845.09;5043831;28;20025;-72
2022/06/18 02:56:06;;;;;;;1.42;1.33;;;;;;;12.89;100.00;98840.59;5043804;28;20399;-72
2022/06/18 02:58:33;;;;;;;4.63;1.45;;;;;;;12.81;99.76;98845.19;5044048;28;20029;-72
2022/06/18 03:01:06;;;;;;;2.38;1.45;;;;;;;12.71;100.00;98833.13;5043836;28;20339;-72
2022/06/18 03:03:36;;;;;;;2.05;1.55;;;;;;;12.72;100.00;98840.13;5043768;28;20085;-72
2022/06/18 03:06:02;;;;;;;3.05;1.67;;;;;;;12.77;100.00;98848.81;5043786;28;20063;-72
2022/06/18 03:08:29;;;;;;;2.35;1.58;;;;;;;12.74;100.00;98846.25;5043711;28;20088;-72
2022/06/18 03:13:39;;;;;;;1.42;1.13;;;;;;;12.76;100.00;98841.78;5043788;28;20028;-72
2022/06/18 03:16:08;;;;;;;3.33;1.73;;;;;;;12.74;100.00;98848.88;5058284;28;20029;-72
2022/06/18 03:18:35;;;;;;;2.17;1.50;;;;;;;12.63;100.00;98853.53;5067134;28;20056;-72
2022/06/18 03:21:15;;;;;;;3.28;1.52;;;;;;;12.54;100.00;98851.16;5067585;28;20025;-72
2022/06/18 03:23:41;;;;;;;1.60;1.25;;;;;;;12.65;100.00;98848.22;5067612;28;20127;-72
2022/06/18 03:26:07;;;;;;;1.88;1.40;;;;;;;12.62;100.00;98854.47;5067485;28;20024;-72
2022/06/18 03:28:32;;;;;;;2.20;1.42;;;;;;;12.62;100.00;98854.47;5067346;28;20032;-72
2022/06/18 03:30:58;;;;;;;5.63;1.63;;;;;;;12.50;100.00;98854.75;5067416;28;20044;-72
2022/06/18 03:33:23;;;;;;;5.75;1.75;;;;;;;12.40;100.00;98858.50;5067384;28;20339;-72
2022/06/18 03:35:51;;;;;;;5.50;1.77;;;;;;;12.41;100.00;98862.88;5067206;28;20028;-72
2022/06/18 03:38:17;;;;;;;4.95;1.70;;;;;;;12.51;100.00;98861.78;5067300;28;20021;-72
2022/06/18 03:40:44;;;;;;;2.30;1.67;;;;;;;12.59;100.00;98864.22;5067212;28;20052;-72
2022/06/18 03:43:10;;;;;;;4.07;1.58;;;;;;;12.70;100.00;98868.38;5067291;28;20024;-72
2022/06/18 03:45:39;;;;;;;1.67;1.30;;;;;;;12.72;100.00;98871.81;5067099;28;20299;-72
2022/06/18 03:48:06;;;;;;;1.58;1.42;;;;;;;12.71;100.00;98870.09;5066804;28;20021;-72
2022/06/18 03:50:31;;;;;;;2.63;1.60;;;;;;;12.70;100.00;98878.03;5047026;28;20022;-72
2022/06/18 03:52:56;;;;;;;1.77;1.35;;;;;;;12.62;100.00;98870.31;5047002;28;20021;-72
2022/06/18 03:55:22;;;;;;;3.03;1.85;;;;;;;12.74;100.00;98874.41;5046931;28;20316;-72
2022/06/18 03:57:47;;;;;;;3.10;1.90;;;;;;;12.81;100.00;98876.88;5045775;28;20033;-72
2022/06/18 04:00:19;;;;;;;4.72;1.85;;;;;;;12.90;100.00;98876.66;5055353;28;20021;-72
2022/06/18 04:02:44;;;;;;;1.85;1.30;;;;;;;12.95;99.70;98873.91;5066605;28;20025;-72
2022/06/18 04:05:10;;;;;;;2.97;1.83;;;;;;;12.96;99.25;98879.16;5066743;28;20304;-72
2022/06/18 04:07:37;;;;;;;2.53;1.50;;;;;;;13.00;99.42;98879.97;5066736;28;20071;-72
2022/06/18 04:10:04;;;;;;;1.33;1.23;;;;;;;13.08;99.33;98880.66;5066722;28;20080;-72
2022/06/18 04:12:29;;;;;;;1.65;1.42;;;;;;;13.12;98.98;98878.78;5066638;28;20088;-72
2022/06/18 04:14:55;;;;;;;2.25;1.42;;;;;;;13.21;98.57;98876.78;5066476;28;20071;-72
2022/06/18 04:17:21;;;;;;;1.92;1.08;;;;;;;13.25;97.66;98877.59;5066722;28;20249;-72
2022/06/18 04:19:46;;;;;;;2.05;1.65;;;;;;;13.32;97.06;98879.16;5066330;28;20041;-72
2022/06/18 04:22:12;;;;;;;2.40;1.40;;;;;;;13.40;96.66;98882.44;5064126;28;20024;-72
2022/06/18 04:24:37;;;;;;;2.97;1.60;;;;;;;13.52;96.39;98882.13;5046404;28;20017;-72
2022/06/18 04:27:04;;;;;;;2.70;1.50;;;;;;;13.64;95.71;98892.38;5046313;28;20101;-72
2022/06/18 04:29:31;;;;;;;1.80;1.17;;;;;;;13.79;96.02;98887.50;5043957;28;20025;-72
2022/06/18 04:31:56;;;;;;;2.65;1.60;;;;;;;14.11;94.96;98883.97;5046278;28;20342;-72
2022/06/18 04:34:21;;;;;;;2.08;1.40;;;;;;;14.59;92.39;98882.50;5045071;28;20025;-72
2022/06/18 04:36:47;;;;;;;3.03;1.40;;;;;;;15.07;89.50;98883.56;5046281;28;20321;-72
2022/06/18 04:39:13;;;;;;;2.90;1.58;;;;;;;15.44;87.39;98877.91;5046160;28;20048;-72
2022/06/18 04:41:39;;;;;;;1.60;1.27;;;;;;;15.81;85.72;98875.66;5046426;28;20021;-72
2022/06/18 04:44:04;;;;;;;1.95;1.35;;;;;;;16.13;83.95;98876.22;5046059;28;20031;-72
2022/06/18 04:46:30;;;;;;;2.05;1.20;;;;;;;16.46;82.65;98877.59;5046085;28;20032;-72
2022/06/18 04:48:56;;;;;;;1.20;1.10;;;;;;;16.80;81.18;98877.16;5054758;28;20032;-72
2022/06/18 04:51:21;;;;;;;2.00;1.13;;;;;;;17.08;80.19;98877.75;5065934;28;20032;-72
2022/06/18 04:53:47;;;;;;;2.60;1.30;;;;;;;17.36;79.08;98882.75;5065849;28;20021;-72
2022/06/18 04:56:12;;;;;;;2.38;1.10;;;;;;;17.67;78.27;98883.22;5062087;28;20092;-72
2022/06/18 04:58:39;;;;;;;1.63;1.20;;;;;;;17.90;77.63;98885.72;5045813;28;20037;-72
2022/06/18 05:01:04;;;;;;;1.48;1.20;;;;;;;18.27;75.59;98880.47;5044614;28;20032;-72
2022/06/18 05:03:31;;;;;;;2.65;1.55;;;;;;;18.31;74.35;98879.38;5045732;28;20025;-72
2022/06/18 05:05:58;;;;;;;1.73;1.25;;;;;;;18.61;74.30;98891.31;5048358;28;20076;-72
2022/06/18 05:08:24;;;;;;;1.38;1.25;;;;;;;18.99;73.40;98882.34;5060549;28;20051;-72
2022/06/18 05:10:49;;;;;;;2.00;1.40;;;;;;;18.92;73.21;98875.59;5048827;28;20040;-72
2022/06/18 05:13:15;;;;;;;1.98;1.52;;;;;;;19.22;73.06;98876.72;5043711;28;20025;-72
2022/06/18 05:15:41;;;;;;;1.42;1.30;;;;;;;19.63;72.16;98880.84;5044497;28;20029;-72
2022/06/18 05:18:12;;;;;;;1.25;1.15;;;;;;;19.85;71.38;98886.81;5044384;28;20044;-73
2022/06/18 05:20:37;;;;;;;2.70;1.30;;;;;;;20.18;70.34;98882.38;5044456;28;20029;-73
2022/06/18 05:23:03;;;;;;;2.15;1.45;;;;;;;20.31;69.77;98880.75;5055735;28;20036;-73
2022/06/18 05:25:28;;;;;;;1.50;1.38;;;;;;;20.60;69.86;98871.97;5063907;28;20040;-73
2022/06/18 05:27:54;;;;;;;1.83;1.25;;;;;;;20.46;69.67;98871.03;5064180;28;20021;-73
2022/06/18 05:30:25;;;;;;;1.33;1.23;;;;;;;20.55;68.47;98868.72;5058149;28;20021;-73
2022/06/18 05:32:51;;;;;;;3.00;1.42;;;;;;;20.27;69.63;98870.31;5044208;28;20040;-73
2022/06/18 05:35:18;;;;;;;1.73;1.40;;;;;;;20.51;69.92;98864.50;5044209;28;20049;-73
2022/06/18 05:37:44;;;;;;;1.70;1.17;;;;;;;21.14;69.41;98871.56;5043791;28;20048;-72
2022/06/18 05:40:12;;;;;;;1.63;1.50;;;;;;;21.58;67.40;98863.59;5062801;28;20039;-72
2022/06/18 05:42:37;;;;;;;2.55;1.48;;;;;;;22.12;66.15;98865.59;5063601;28;20035;-71
2022/06/18 05:45:03;;;;;;;1.20;1.05;;;;;;;22.36;65.64;98871.25;5053289;28;20045;-71
2022/06/18 05:47:31;;;;;;;3.03;1.42;;;;;;;22.72;64.64;98866.28;5044808;28;20033;-71
2022/06/18 05:49:57;;;;;;;3.15;1.48;;;;;;;22.96;64.67;98861.97;5044819;28;20051;-71
2022/06/18 05:52:23;;;;;;;4.28;1.65;;;;;;;23.04;64.10;98857.81;5044815;28;20021;-71
2022/06/18 05:54:52;;;;;;;2.63;1.48;;;;;;;23.56;60.59;98863.31;5044721;28;20025;-71
2022/06/18 05:57:21;;;;;;;2.53;1.42;;;;;;;23.64;62.78;98868.16;5044669;28;20032;-71
2022/06/18 05:59:48;;;;;;;2.28;1.48;;;;;;;24.32;60.77;98867.78;5044690;28;20325;-71
2022/06/18 06:02:15;;;;;;;1.45;1.30;;;;;;;24.75;58.60;98860.22;5044895;28;20355;-71
2022/06/18 06:04:42;;;;;;;2.72;1.70;;;;;;;24.71;59.00;98856.88;5044562;28;20021;-71
2022/06/18 06:07:20;;;;;;;2.67;1.30;;;;;;;25.11;59.00;98870.97;5044508;28;20067;-71
2022/06/18 06:12:30;;;;;;;2.30;1.52;;;;;;;25.24;56.19;98856.47;5044457;28;20059;-71
2022/06/18 06:14:56;;;;;;;2.90;1.50;;;;;;;26.13;55.01;98864.91;5044349;28;20021;-71
2022/06/18 06:17:24;;;;;;;2.05;1.70;;;;;;;26.35;54.44;98865.78;5044608;28;20040;-71
2022/06/18 06:19:50;;;;;;;4.45;1.90;;;;;;;26.38;55.16;98854.75;5044252;28;20043;-71
2022/06/18 06:22:15;;;;;;;4.18;1.88;;;;;;;26.45;55.08;98855.97;5044516;28;20031;-71
2022/06/18 06:24:41;;;;;;;5.13;1.60;;;;;;;26.61;56.24;98861.00;5044321;28;20021;-72
2022/06/18 06:27:08;;;;;;;2.10;1.60;;;;;;;26.96;54.79;98861.72;5044448;28;20017;-72
2022/06/18 06:29:33;;;;;;;3.30;1.50;;;;;;;26.90;55.55;98864.94;5044104;28;20030;-72
2022/06/18 06:31:58;;;;;;;3.83;1.90;;;;;;;27.71;53.50;98871.56;5044191;28;20131;-72
2022/06/18 06:34:24;;;;;;;1.85;1.40;;;;;;;27.81;53.07;98868.94;5044084;28;20025;-72
2022/06/18 06:36:51;;;;;;;4.20;2.00;;;;;;;28.18;52.43;98856.69;5044108;28;20029;-72
2022/06/18 06:39:16;;;;;;;2.90;1.50;;;;;;;28.63;52.89;98860.81;5044172;28;20084;-72
2022/06/18 06:41:43;;;;;;;10.32;1.95;;;;;;;29.05;51.91;98863.22;5043582;28;20287;-72
2022/06/18 06:44:08;;;;;;;2.75;1.70;;;;;;;29.52;51.47;98863.44;5043162;28;20030;-72
2022/06/18 06:46:34;;;;;;;1.70;1.55;;;;;;;29.41;50.54;98858.16;5043998;28;20029;-72
2022/06/18 06:48:59;;;;;;;2.00;1.60;;;;;;;29.38;51.86;98848.44;5043994;28;20037;-72
2022/06/18 06:51:27;;;;;;;4.72;1.70;;;;;;;29.73;50.16;98856.06;5043289;28;20021;-72
2022/06/18 06:53:53;;;;;;;2.58;1.60;;;;;;;30.57;48.06;98853.31;5043877;28;20025;-72
2022/06/18 06:59:05;;;;;;;4.45;1.70;;;;;;;31.06;47.48;98858.38;5043873;28;20370;-72
2022/06/18 07:01:30;;;;;;;2.13;1.90;;;;;;;29.91;49.13;98835.31;5043797;28;20325;-72
2022/06/18 07:03:56;;;;;;;2.70;1.75;;;;;;;30.02;48.62;98843.31;5043810;28;20045;-72
2022/06/18 07:06:22;;;;;;;2.20;1.65;;;;;;;30.34;48.96;98847.38;5043788;28;20025;-72
2022/06/18 07:08:47;;;;;;;4.30;1.80;;;;;;;30.67;49.53;98846.84;5043799;28;20080;-72
2022/06/18 07:11:14;;;;;;;1.70;1.60;;;;;;;31.10;46.76;98843.50;5043812;28;20021;-72
2022/06/18 07:13:40;;;;;;;5.38;2.10;;;;;;;31.50;49.23;98857.53;5043695;28;20067;-72
2022/06/18 07:16:06;;;;;;;3.15;1.83;;;;;;;31.37;49.15;98846.19;5043629;28;20037;-72
2022/06/18 07:18:35;;;;;;;3.00;1.83;;;;;;;32.14;46.79;98846.41;5043560;28;20045;-72
2022/06/18 07:21:03;;;;;;;3.67;1.77;;;;;;;31.87;45.14;98836.50;5043662;28;20352;-72
2022/06/18 07:23:29;;;;;;;2.17;1.80;;;;;;;32.88;46.57;98842.09;5043604;28;20221;-72
2022/06/18 07:25:55;;;;;;;2.30;1.70;;;;;;;33.44;44.86;98838.72;5060823;28;20028;-70
2022/06/18 07:28:20;;;;;;;6.90;2.22;;;;;;;33.69;40.67;98827.63;5063516;28;20033;-72
2022/06/18 07:30:46;;;;;;;4.10;2.00;;;;;;;33.19;36.21;98817.81;5063530;28;20048;-72
2022/06/18 07:33:20;;;;;;;4.38;1.83;;;;;;;33.20;40.39;98822.25;5063453;28;20380;-72
2022/06/18 07:35:46;;;;;;;2.42;1.80;;;;;;;33.70;37.84;98809.41;5063346;28;20029;-72
2022/06/18 07:38:11;;;;;;;3.10;1.95;;;;;;;33.17;36.96;98798.03;5063505;28;20041;-72
2022/06/18 07:40:44;;;;;;;5.65;2.17;;;;;;;34.15;37.44;98807.00;5063392;28;20275;-72
2022/06/18 07:43:11;;;;;;;2.35;1.70;;;;;;;34.33;37.06;98799.44;5063381;28;20036;-72
2022/06/18 07:45:37;;;;;;;4.43;2.08;;;;;;;34.93;38.46;98803.41;5063329;28;20024;-72
2022/06/18 07:48:03;;;;;;;3.65;2.50;;;;;;;34.17;38.06;98789.38;5063363;28;20025;-72
2022/06/18 07:50:30;;;;;;;3.00;1.98;;;;;;;34.61;38.64;98792.56;5063320;28;20031;-72
2022/06/18 07:52:55;;;;;;;2.65;2.20;;;;;;;33.95;39.01;98787.41;5063297;28;20103;-72
2022/06/18 07:55:26;;;;;;;5.53;2.05;;;;;;;34.08;38.47;98789.59;5063294;28;20292;-72
2022/06/18 07:57:51;;;;;;;;;;;;;;;34.84;40.27;98798.94;5063709;28;20032;-72
2022/06/18 08:00:20;;;;;;;5.05;2.10;;;;;;;34.72;38.48;98781.22;5063362;28;19904;-72
2022/06/18 08:02:46;;;;;;;3.47;2.28;;;;;;;34.75;40.15;98780.88;5063882;28;20284;-72
2022/06/18 08:05:18;;;;;;;2.67;2.08;;;;;;;35.03;39.26;98779.38;5066808;28;20039;-72
2022/06/18 08:07:43;;;;;;;2.95;2.05;;;;;;;34.61;37.75;98773.44;5066854;28;20029;-72
2022/06/18 08:10:10;;;;;;;3.03;2.10;;;;;;;34.48;37.90;98764.94;5066659;28;20032;-72
2022/06/18 08:12:36;;;;;;;2.83;1.90;;;;;;;34.90;37.88;98781.88;5066915;28;20017;-72
2022/06/18 08:15:01;;;;;;;5.70;2.20;;;;;;;34.98;37.60;98768.13;5066808;28;20029;-72
2022/06/18 08:17:27;;;;;;;3.45;2.20;;;;;;;36.00;35.62;98772.16;5054820;28;20332;-72
2022/06/18 08:19:53;;;;;;;3.28;1.90;;;;;;;35.97;36.06;98764.31;5046446;28;20148;-72
2022/06/18 08:22:21;;;;;;;2.78;2.42;;;;;;;35.52;37.11;98761.63;5046543;28;20213;-72
2022/06/18 08:24:47;;;;;;;3.95;2.00;;;;;;;35.31;37.42;98757.81;5046453;28;20089;-72
2022/06/18 08:27:14;;;;;;;4.45;2.20;;;;;;;36.15;36.04;98764.81;5046396;28;20025;-72
2022/06/18 08:29:39;;;;;;;2.40;1.80;;;;;;;35.93;36.00;98768.47;5046397;28;20021;-73
2022/06/18 08:32:05;;;;;;;3.50;1.92;;;;;;;36.12;36.13;98759.72;5044659;28;20028;-72
2022/06/18 08:34:30;;;;;;;2.72;2.00;;;;;;;36.52;35.01;98770.28;5057101;28;20354;-72
2022/06/18 08:36:56;;;;;;;3.67;2.20;;;;;;;36.76;35.06;98759.00;5065262;28;20028;-72
2022/06/18 08:39:21;;;;;;;2.97;1.90;;;;;;;36.65;33.38;98762.22;5065209;28;20338;-72
2022/06/18 08:42:26;;;;;;;5.10;1.90;;;;;;;37.11;33.17;98773.81;5065183;28;20021;-72
2022/06/18 08:45:17;;;;;;;2.92;1.80;;;;;;;35.91;33.35;98761.50;5064739;28;20327;-72
2022/06/18 08:48:19;;;;;;;3.78;1.90;;;;;;;35.84;33.65;98755.88;5065097;28;20350;-72
2022/06/18 08:50:50;;;;;;;2.10;1.50;;;;;;;35.51;32.45;98754.44;5064985;28;20023;-72
2022/06/18 08:53:48;;;;;;;3.05;1.67;;;;;;;35.79;32.39;98757.44;5064969;28;20071;-72
2022/06/18 08:56:31;;;;;;;1.85;1.40;;;;;;;36.55;30.61;98756.19;5062950;28;20052;-72
2022/06/18 08:59:08;;;;;;;1.80;1.40;;;;;;;36.76;30.30;98750.78;5064884;28;20088;-72
2022/06/18 09:01:39;;;;;;;3.17;1.45;;;;;;;35.80;29.91;98748.22;5064798;28;20316;-72
2022/06/18 09:04:27;;;;;;;2.85;1.40;;;;;;;36.19;30.88;98746.97;5065033;28;20268;-72
2022/06/18 09:07:07;;;;;;;2.08;1.40;;;;;;;36.56;30.42;98746.03;5064682;28;20332;-72
2022/06/18 09:09:58;;;;;;;;;;;;;;;37.01;31.24;98745.78;5061727;28;20263;-72
2022/06/18 09:12:34;;;;;;;1.52;1.35;;;;;;;37.66;32.18;98752.03;5049670;28;19912;-72
2022/06/18 09:15:11;;;;;;;2.08;1.52;;;;;;;37.39;30.18;98749.22;5063873;28;20320;-73
2022/06/18 09:18:19;;;;;;;5.03;1.58;;;;;;;37.49;28.20;98749.72;5064468;28;20317;-73
2022/06/18 09:21:01;;;;;;;4.03;1.65;;;;;;;37.16;28.70;98745.78;5061212;28;20045;-70
2022/06/18 09:23:40;;;;;;;3.53;1.40;;;;;;;37.25;29.00;98748.22;5044114;28;20108;-72
2022/06/18 09:26:13;;;;;;;8.27;1.60;;;;;;;37.10;29.35;98743.81;5044454;28;20057;-70
2022/06/18 09:28:49;;;;;;;2.50;1.65;;;;;;;37.81;28.88;98750.06;5044592;28;20054;-71
2022/06/18 09:31:22;;;;;;;4.80;1.73;;;;;;;36.92;29.29;98750.56;5062198;28;20071;-71
2022/06/18 09:34:16;;;;;;;2.38;1.20;;;;;;;37.01;28.29;98750.44;5064446;28;20052;-73
2022/06/18 09:36:45;;;;;;;2.38;1.52;;;;;;;37.67;28.37;98748.25;5063756;28;20148;-73
2022/06/18 09:39:22;;;;;;;4.63;1.77;;;;;;;37.93;28.60;98748.44;5063564;28;20084;-73
2022/06/18 09:41:56;;;;;;;2.15;1.60;;;;;;;37.81;29.54;98738.22;5044069;28;20021;-70
2022/06/18 09:44:48;;;;;;;2.70;1.67;;;;;;;37.16;29.61;98732.88;5044516;28;20032;-71
2022/06/18 09:47:26;;;;;;;2.10;1.50;;;;;;;37.75;27.91;98728.03;5044043;28;20333;-71
2022/06/18 09:49:51;;;;;;;2.53;1.48;;;;;;;37.55;26.81;98726.97;5044199;28;20084;-72
2022/06/18 09:52:32;;;;;;;3.95;1.80;;;;;;;37.41;26.64;98725.13;5044331;28;20071;-72
2022/06/18 09:55:34;;;;;;;2.42;1.48;;;;;;;37.26;27.76;98716.13;5043868;28;20252;-72
2022/06/18 09:58:02;;;;;;;5.30;1.50;;;;;;;37.44;28.15;98724.75;5042932;28;20037;-71
2022/06/18 10:00:30;;;;;;;4.65;1.40;;;;;;;36.86;27.33;98710.16;5054111;28;20086;-71
2022/06/18 10:06:52;;;;;;;1.10;1.00;;;;;;;37.18;26.90;98708.84;5063401;28;20066;-71
2022/06/18 10:08:52;;;;;;;5.25;1.40;;;;;;;37.70;27.40;98714.88;5063519;28;20051;-72
2022/06/18 10:11:21;;;;;;;3.30;1.67;;;;;;;37.54;26.82;98708.78;5061851;28;20021;-71
2022/06/18 10:14:02;;;;;;;4.13;1.58;;;;;;;37.50;26.70;98696.50;5063461;28;20021;-71
2022/06/18 10:16:37;;;;;;;8.10;2.47;;;;;;;37.27;27.75;98702.22;5063051;28;20017;-71
2022/06/18 10:19:33;;;;;;;5.00;1.63;;;;;;;37.57;28.25;98697.38;5061641;28;20301;-71
2022/06/18 10:22:08;;;;;;;2.17;1.30;;;;;;;37.56;29.03;98692.94;5060218;28;20036;-71
2022/06/18 10:24:44;;;;;;;3.22;1.98;;;;;;;37.45;28.29;98677.84;5063193;28;20021;-71
2022/06/18 10:27:27;;;;;;;4.30;1.50;;;;;;;37.39;27.23;98686.06;5058528;28;20095;-71
2022/06/18 10:30:01;;;;;;;3.42;1.50;;;;;;;37.61;29.25;98671.25;5042861;28;20029;-71
2022/06/18 10:32:34;;;;;;;6.28;1.70;;;;;;;37.39;27.43;98677.81;5043234;28;20201;-71
2022/06/18 10:35:10;;;;;;;2.70;1.58;;;;;;;37.63;28.38;98675.47;5043180;28;20025;-71
2022/06/18 10:37:52;;;;;;;2.03;1.33;;;;;;;38.02;27.79;98674.97;5043148;28;20029;-71
2022/06/18 10:40:42;;;;;;;3.75;1.70;;;;;;;37.36;27.97;98665.31;5043109;28;20256;-71
2022/06/18 10:43:29;;;;;;;5.25;2.00;;;;;;;36.95;27.32;98657.91;5042878;28;20029;-71
2022/06/18 10:46:16;;;;;;;4.63;2.17;;;;;;;37.30;27.70;98663.38;5049326;28;20397;-71
2022/06/18 10:48:49;;;;;;;6.35;1.67;;;;;;;37.52;28.33;98653.19;5063038;28;20029;-71
2022/06/18 10:51:17;;;;;;;5.32;2.13;;;;;;;37.40;28.78;98658.38;5062917;28;20025;-71
2022/06/18 10:53:51;;;;;;;6.20;1.80;;;;;;;37.22;28.26;98648.91;5062846;28;20028;-71
2022/06/18 10:56:26;;;;;;;3.83;1.95;;;;;;;37.04;28.20;98645.75;5053145;28;20027;-71
2022/06/18 10:58:57;;;;;;;3.90;1.40;;;;;;;37.01;28.68;98646.16;5042914;28;20072;-71
2022/06/18 11:01:34;;;;;;;4.38;1.73;;;;;;;36.59;29.37;98647.78;5042930;28;20041;-71
2022/06/18 11:04:03;;;;;;;6.32;2.00;;;;;;;36.66;29.78;98643.22;5043123;28;20025;-71
2022/06/18 11:06:30;;;;;;;6.95;1.55;;;;;;;36.52;29.46;98630.41;5053545;28;20336;-71
2022/06/18 11:09:00;;;;;;;4.35;1.77;;;;;;;36.75;30.21;98635.75;5062363;28;20328;-71
2022/06/18 11:11:32;;;;;;;6.38;1.60;;;;;;;36.82;30.10;98628.41;5062798;28;20025;-71
2022/06/18 11:14:18;;;;;;;;;;;;;;;37.11;28.58;98624.72;5063135;28;20032;-71
2022/06/18 11:16:46;;;;;;;5.40;1.73;;;;;;;37.59;29.70;98626.63;5049951;28;20224;-71
2022/06/18 11:19:34;;;;;;;6.40;1.67;;;;;;;37.29;27.44;98623.22;5042660;28;20367;-71
2022/06/18 11:22:17;;;;;;;9.45;2.22;;;;;;;37.21;28.29;98622.50;5042291;28;20089;-71
2022/06/18 11:24:44;;;;;;;8.90;2.05;;;;;;;37.34;27.59;98619.88;5042635;28;20029;-71
2022/06/18 11:27:16;;;;;;;8.82;2.03;;;;;;;37.44;27.84;98617.63;5058568;28;20316;-71
2022/06/18 11:29:53;;;;;;;9.93;1.90;;;;;;;37.13;26.94;98606.16;5062601;28;20021;-71
2022/06/18 11:32:26;;;;;;;10.05;1.95;;;;;;;37.01;26.28;98608.56;5062582;28;20056;-71
2022/06/18 11:35:22;;;;;;;8.43;2.10;;;;;;;36.83;26.21;98600.78;5062109;28;20024;-71
2022/06/18 11:38:27;;;;;;;7.78;1.88;;;;;;;36.17;26.87;98601.03;5043506;28;20104;-71
2022/06/18 11:40:54;;;;;;;9.82;1.70;;;;;;;35.85;25.39;98592.38;5046395;28;20045;-71
2022/06/18 11:43:46;;;;;;;9.68;2.47;;;;;;;35.61;25.90;98577.03;5046312;28;20028;-71
2022/06/18 11:46:14;;;;;;;;;;;;;;;35.92;26.68;98585.94;5045009;28;20087;-71
2022/06/18 11:48:51;;;;;;;10.57;2.00;;;;;;;35.84;27.67;98566.84;5046246;28;19905;-71
2022/06/18 11:51:26;;;;;;;13.65;2.70;;;;;;;35.41;27.23;98562.19;5046173;28;20048;-71
2022/06/18 11:54:03;;;;;;;5.22;1.77;;;;;;;35.22;27.58;98562.72;5047835;28;20033;-71
2022/06/18 11:56:47;;;;;;;6.18;1.90;;;;;;;35.34;27.20;98555.78;5066028;28;20224;-71
2022/06/18 11:59:22;;;;;;;9.15;1.90;;;;;;;35.53;29.12;98560.72;5065797;28;20071;-71
2022/06/18 12:01:55;;;;;;;8.30;1.60;;;;;;;35.39;27.49;98552.50;5065988;28;20024;-71
2022/06/18 12:04:43;;;;;;;7.70;2.30;;;;;;;35.13;27.90;98541.94;5059994;28;20029;-71
2022/06/18 12:07:20;;;;;;;5.28;1.80;;;;;;;35.07;27.96;98537.19;5045917;28;20040;-71
2022/06/18 12:09:46;;;;;;;8.85;1.75;;;;;;;34.63;27.87;98534.31;5046128;28;20064;-71